createdAt,value
2022-12-07T00:00:27.901Z,1.00
2022-12-07T00:05:31.656Z,1.60
2022-12-07T00:10:36.633Z,1.00
2022-12-07T00:15:39.406Z,1.60
2022-12-07T00:20:42.221Z,1.00
2022-12-07T00:25:46.713Z,1.00
2022-12-07T00:30:49.704Z,1.00
2022-12-07T00:35:57.544Z,1.00
2022-12-07T00:41:02.729Z,1.00
2022-12-07T00:46:06.007Z,1.80
2022-12-07T00:51:08.924Z,1.60
2022-12-07T00:56:14.716Z,1.00
2022-12-07T01:01:17.673Z,1.00
2022-12-07T01:06:21.353Z,1.60
2022-12-07T01:11:26.466Z,0.20
2022-12-07T01:16:30.172Z,1.00
2022-12-07T01:21:35.671Z,1.00
2022-12-07T01:26:39.978Z,1.00
2022-12-07T01:31:42.711Z,1.00
2022-12-07T01:36:45.488Z,1.00
2022-12-07T01:41:49.621Z,1.00
2022-12-07T01:46:53.038Z,1.00
2022-12-07T01:51:59.022Z,1.60
2022-12-07T01:57:03.181Z,1.00
2022-12-07T02:02:06.807Z,1.00
2022-12-07T02:07:09.624Z,1.00
2022-12-07T02:12:13.756Z,0.40
2022-12-07T02:17:18.472Z,0.60
2022-12-07T02:22:32.362Z,1.00
2022-12-07T02:27:40.032Z,1.00
2022-12-07T02:32:46.908Z,0.20
2022-12-07T02:37:55.185Z,1.00
2022-12-07T02:43:02.367Z,1.00
2022-12-07T02:48:06.872Z,0.40
2022-12-07T02:53:31.190Z,0.00
2022-12-07T02:58:37.775Z,0.00
2022-12-07T03:03:41.877Z,0.00
2022-12-07T03:08:49.777Z,1.00
2022-12-07T03:13:55.281Z,0.00
2022-12-07T03:19:01.103Z,0.80
2022-12-07T03:24:06.518Z,1.00
2022-12-07T03:29:11.300Z,0.60
2022-12-07T03:34:17.144Z,1.00
2022-12-07T03:39:23.681Z,0.00
2022-12-07T03:44:26.446Z,0.00
2022-12-07T03:49:32.961Z,0.20
2022-12-07T03:54:38.416Z,1.00
2022-12-07T03:59:41.287Z,0.00
2022-12-07T04:04:45.444Z,0.00
2022-12-07T04:09:48.211Z,0.20
2022-12-07T04:14:50.993Z,0.00
2022-12-07T04:19:55.638Z,0.00
2022-12-07T04:24:58.463Z,0.00
2022-12-07T04:30:01.628Z,0.00
2022-12-07T04:35:06.927Z,1.00
2022-12-07T04:40:12.039Z,0.80
2022-12-07T04:45:14.827Z,0.20
2022-12-07T04:50:19.072Z,0.00
2022-12-07T04:55:21.845Z,1.00
2022-12-07T05:00:24.787Z,0.00
2022-12-07T05:05:28.966Z,0.80
2022-12-07T05:10:31.684Z,1.00
2022-12-07T05:15:34.436Z,0.60
2022-12-07T05:20:42.428Z,1.00
2022-12-07T05:25:45.891Z,0.00
2022-12-07T05:30:48.642Z,0.80
2022-12-07T05:35:52.737Z,0.00
2022-12-07T05:40:55.636Z,1.00
2022-12-07T05:45:58.420Z,0.00
2022-12-07T05:51:02.740Z,0.60
2022-12-07T05:56:06.232Z,0.20
2022-12-07T06:01:09.080Z,0.00
2022-12-07T06:06:13.374Z,0.00
2022-12-07T06:11:33.834Z,0.00
2022-12-07T06:16:36.869Z,0.00
2022-12-07T06:21:41.276Z,0.00
2022-12-07T06:26:44.135Z,0.20
2022-12-07T06:31:46.988Z,0.00
2022-12-07T06:36:52.840Z,0.00
2022-12-07T06:41:55.878Z,0.00
2022-12-07T06:47:25.138Z,0.00
2022-12-07T06:52:22.778Z,0.00
2022-12-07T06:57:25.572Z,0.00
2022-12-07T07:02:28.500Z,0.00
2022-12-07T07:07:41.700Z,0.20
2022-12-07T07:12:57.424Z,0.00
2022-12-07T07:18:06.083Z,0.40
2022-12-07T07:23:11.935Z,1.00
2022-12-07T07:28:15.005Z,0.40
2022-12-07T07:33:17.778Z,1.00
2022-12-07T07:38:21.941Z,0.00
2022-12-07T07:43:24.758Z,0.00
2022-12-07T07:48:27.501Z,0.00
2022-12-07T07:53:31.772Z,0.00
2022-12-07T07:58:34.541Z,1.00
2022-12-07T08:03:37.589Z,0.00
2022-12-07T08:08:41.722Z,1.00
2022-12-07T08:13:44.539Z,1.00
2022-12-07T08:18:47.331Z,1.00
2022-12-07T08:23:51.593Z,0.00
2022-12-07T08:28:54.972Z,0.60
2022-12-07T08:33:58.188Z,1.00
2022-12-07T08:39:30.280Z,0.00
2022-12-07T08:44:25.424Z,1.00
2022-12-07T08:49:29.313Z,0.00
2022-12-07T08:54:33.596Z,0.00
2022-12-07T08:59:36.942Z,0.20
2022-12-07T09:04:39.722Z,0.00
2022-12-07T09:09:43.916Z,1.00
2022-12-07T09:14:46.738Z,0.60
2022-12-07T09:19:49.513Z,0.00
2022-12-07T09:24:53.776Z,0.80
2022-12-07T09:29:56.639Z,9.40
2022-12-07T09:34:59.415Z,9.00
2022-12-07T09:40:04.105Z,7.20
2022-12-07T09:45:07.941Z,7.20
2022-12-07T09:50:15.155Z,5.00
2022-12-07T09:55:26.706Z,3.00
2022-12-07T10:00:29.582Z,3.00
2022-12-07T10:05:33.266Z,2.20
2022-12-07T10:10:39.529Z,1.00
2022-12-07T10:15:47.890Z,1.40
2022-12-07T10:20:50.692Z,1.00
2022-12-07T10:25:55.980Z,0.00
2022-12-07T10:31:00.178Z,1.00
2022-12-07T10:36:11.360Z,1.00
2022-12-07T10:41:15.515Z,0.60
2022-12-07T10:46:54.898Z,0.00
2022-12-07T10:52:00.351Z,0.60
2022-12-07T10:57:10.145Z,1.00
2022-12-07T11:02:25.208Z,1.00
2022-12-07T11:07:33.024Z,0.60
2022-12-07T11:12:45.157Z,1.00
2022-12-07T11:17:50.984Z,1.00
2022-12-07T11:22:57.027Z,1.00
2022-12-07T11:28:08.963Z,0.20
2022-12-07T11:33:17.477Z,0.60
2022-12-07T11:38:26.207Z,0.00
2022-12-07T11:43:33.995Z,1.00
2022-12-07T11:48:39.424Z,1.00
2022-12-07T11:53:43.861Z,0.00
2022-12-07T11:58:53.422Z,0.00
2022-12-07T12:03:58.104Z,1.00
2022-12-07T12:14:36.697Z,1.00
2022-12-07T12:19:40.553Z,1.00
2022-12-07T12:24:43.496Z,1.00
2022-12-07T12:29:47.652Z,0.80
2022-12-07T12:35:05.501Z,1.00
2022-12-07T12:40:51.030Z,1.00
2022-12-07T12:46:05.327Z,1.00
2022-12-07T12:51:38.696Z,1.00
2022-12-07T12:56:42.786Z,1.00
2022-12-07T13:01:48.071Z,1.00
2022-12-07T13:06:51.048Z,1.00
2022-12-07T13:11:58.831Z,2.00
2022-12-07T13:17:03.084Z,2.20
2022-12-07T13:22:27.350Z,6.80
2022-12-07T13:27:30.147Z,7.20
2022-12-07T13:32:34.212Z,9.00
2022-12-07T13:37:38.940Z,9.60
2022-12-07T13:42:41.840Z,13.40
2022-12-07T13:47:48.904Z,12.20
2022-12-07T13:52:51.717Z,15.80
2022-12-07T13:57:55.137Z,18.00
2022-12-07T14:03:00.364Z,18.00
2022-12-07T14:08:04.286Z,18.00
2022-12-07T14:13:27.728Z,17.75
2022-12-07T14:18:32.648Z,14.00
2022-12-07T14:23:35.551Z,15.80
2022-12-07T14:28:39.073Z,16.00
2022-12-07T14:33:43.186Z,14.80
2022-12-07T14:38:46.046Z,14.40
2022-12-07T14:44:21.350Z,13.20
2022-12-07T14:54:36.374Z,13.20
2022-12-07T14:59:43.305Z,13.00
2022-12-07T15:04:49.469Z,10.00
2022-12-07T15:09:52.572Z,12.00
2022-12-07T15:14:56.531Z,7.80
2022-12-07T15:20:00.929Z,9.00
2022-12-07T15:25:05.388Z,9.00
2022-12-07T15:30:09.630Z,9.00
2022-12-07T15:35:14.091Z,8.20
2022-12-07T15:40:17.363Z,9.00
2022-12-07T15:45:20.227Z,9.20
2022-12-07T15:50:24.603Z,9.00
2022-12-07T15:55:27.521Z,9.00
2022-12-07T16:00:30.628Z,8.80
2022-12-07T16:05:35.481Z,7.60
2022-12-07T16:10:38.307Z,8.00
2022-12-07T16:15:41.195Z,8.20
2022-12-07T16:20:45.381Z,7.80
2022-12-07T16:25:48.255Z,7.80
2022-12-07T16:30:51.154Z,6.00
2022-12-07T16:35:55.405Z,6.00
2022-12-07T16:40:58.239Z,6.80
2022-12-07T16:46:01.103Z,6.80
2022-12-07T16:51:06.383Z,5.80
2022-12-07T16:56:12.036Z,6.00
2022-12-07T17:01:16.439Z,6.80
2022-12-07T17:06:21.732Z,6.00
2022-12-07T17:11:25.648Z,6.20
2022-12-07T17:16:28.572Z,6.00
2022-12-07T17:21:33.029Z,5.80
2022-12-07T17:26:36.379Z,5.00
2022-12-07T17:31:39.235Z,6.80
2022-12-07T17:36:43.695Z,6.00
2022-12-07T17:42:04.158Z,6.00
2022-12-07T17:47:07.970Z,5.00
2022-12-07T17:52:29.718Z,5.80
2022-12-07T17:57:32.467Z,3.40
2022-12-07T18:02:35.292Z,5.00
2022-12-07T18:07:39.683Z,5.00
2022-12-07T18:12:46.293Z,5.00
2022-12-07T18:17:51.993Z,5.00
2022-12-07T18:22:56.444Z,3.00
2022-12-07T18:27:59.216Z,3.40
2022-12-07T18:33:02.212Z,2.20
2022-12-07T18:38:06.489Z,3.00
2022-12-07T18:43:09.352Z,3.00
2022-12-07T18:48:12.130Z,2.20
2022-12-07T18:53:16.293Z,2.40
2022-12-07T18:58:19.118Z,3.00
2022-12-07T19:03:22.190Z,3.00
2022-12-07T19:08:26.526Z,2.80
2022-12-07T19:13:29.447Z,2.80
2022-12-07T19:18:32.909Z,2.00
2022-12-07T19:23:37.296Z,2.00
2022-12-07T19:28:40.235Z,3.00
2022-12-07T19:33:43.218Z,2.00
2022-12-07T19:38:47.297Z,2.00
2022-12-07T19:43:50.053Z,1.60
2022-12-07T19:48:53.001Z,1.00
2022-12-07T19:53:58.465Z,1.20
2022-12-07T19:59:01.931Z,2.00
2022-12-07T20:04:05.733Z,2.00
2022-12-07T20:09:09.973Z,2.00
2022-12-07T20:14:13.029Z,2.20
2022-12-07T20:19:16.050Z,2.00
2022-12-07T20:24:22.609Z,2.00
2022-12-07T20:29:26.088Z,1.60
2022-12-07T20:34:28.934Z,1.80
2022-12-07T20:39:33.751Z,2.00
2022-12-07T20:44:36.948Z,2.00
2022-12-07T20:49:39.848Z,1.20
2022-12-07T20:54:44.378Z,1.00
2022-12-07T20:59:47.315Z,1.00
2022-12-07T21:04:50.060Z,1.80
2022-12-07T21:09:54.508Z,2.00
2022-12-07T21:14:57.292Z,1.00
2022-12-07T21:20:00.201Z,1.20
2022-12-07T21:25:04.888Z,1.00
2022-12-07T21:30:09.050Z,2.00
2022-12-07T21:35:11.922Z,0.00
2022-12-07T21:40:17.053Z,1.00
2022-12-07T21:45:20.183Z,1.00
2022-12-07T21:50:23.033Z,2.00
2022-12-07T21:55:27.346Z,0.20
2022-12-07T22:00:30.787Z,1.00
2022-12-07T22:05:34.199Z,1.00
2022-12-07T22:10:38.374Z,1.40
2022-12-07T22:15:41.664Z,1.00
2022-12-07T22:20:44.699Z,1.00
2022-12-07T22:25:49.019Z,1.00
2022-12-07T22:30:51.901Z,1.00
2022-12-07T22:35:54.831Z,1.00
2022-12-07T22:40:59.149Z,0.40
2022-12-07T22:46:02.023Z,1.00
2022-12-07T22:51:05.196Z,1.00
2022-12-07T22:56:09.642Z,1.00
2022-12-07T23:01:13.082Z,1.00
2022-12-07T23:06:17.648Z,1.00
2022-12-07T23:11:40.340Z,0.80
2022-12-07T23:16:43.147Z,1.00
2022-12-07T23:21:45.951Z,0.40
2022-12-07T23:26:50.275Z,0.20
2022-12-07T23:31:53.264Z,1.00
2022-12-07T23:36:56.240Z,1.00
2022-12-07T23:42:00.299Z,0.00
2022-12-07T23:47:03.175Z,0.00
2022-12-07T23:52:06.153Z,0.00
2022-12-07T23:57:10.281Z,0.00
